createdAt,value
2022-09-06T00:00:43.985Z,3.28
2022-09-06T00:03:29.878Z,3.20
2022-09-06T00:06:18.183Z,3.50
2022-09-06T00:09:04.422Z,3.50
2022-09-06T00:11:50.419Z,3.40
2022-09-06T00:14:36.297Z,3.10
2022-09-06T00:17:22.416Z,3.40
2022-09-06T00:20:09.450Z,3.38
2022-09-06T00:22:59.704Z,3.60
2022-09-06T00:25:45.545Z,3.55
2022-09-06T00:28:31.460Z,4.15
2022-09-06T00:31:19.976Z,3.97
2022-09-06T00:34:05.994Z,4.57
2022-09-06T00:36:52.370Z,4.30
2022-09-06T00:39:37.743Z,4.13
2022-09-06T00:42:24.612Z,4.18
2022-09-06T00:45:11.818Z,5.47
2022-09-06T00:47:59.449Z,5.18
2022-09-06T00:50:46.674Z,4.57
2022-09-06T00:53:33.334Z,5.05
2022-09-06T00:56:19.407Z,4.13
2022-09-06T00:59:05.792Z,4.15
2022-09-06T01:01:52.516Z,4.40
2022-09-06T01:04:41.958Z,4.57
2022-09-06T01:07:51.776Z,3.83
2022-09-06T01:10:43.496Z,4.50
2022-09-06T01:13:54.595Z,5.30
2022-09-06T01:17:03.713Z,4.75
2022-09-06T01:20:27.457Z,5.32
2022-09-06T01:23:35.519Z,5.03
2022-09-06T01:26:36.421Z,5.00
2022-09-06T01:29:22.302Z,5.00
2022-09-06T01:32:42.567Z,5.32
2022-09-06T01:35:55.255Z,5.53
2022-09-06T01:38:41.026Z,5.32
2022-09-06T01:41:27.468Z,5.75
2022-09-06T01:44:13.338Z,5.78
2022-09-06T01:47:36.718Z,5.85
2022-09-06T01:50:45.420Z,5.63
2022-09-06T01:53:39.474Z,5.63
2022-09-06T01:56:39.586Z,5.82
2022-09-06T01:59:26.281Z,5.20
2022-09-06T02:02:24.958Z,5.30
2022-09-06T02:05:22.969Z,5.22
2022-09-06T02:08:31.133Z,5.13
2022-09-06T02:11:17.259Z,5.30
2022-09-06T02:14:08.219Z,5.25
2022-09-06T02:19:45.058Z,5.10
2022-09-06T02:22:35.276Z,5.10
2022-09-06T02:25:27.732Z,4.95
2022-09-06T02:28:14.272Z,4.85
2022-09-06T02:31:03.359Z,5.05
2022-09-06T02:33:50.747Z,4.88
2022-09-06T02:36:37.437Z,5.57
2022-09-06T02:39:23.118Z,5.13
2022-09-06T02:42:10.695Z,4.57
2022-09-06T02:45:00.374Z,4.78
2022-09-06T02:47:45.645Z,4.50
2022-09-06T02:50:32.411Z,4.43
2022-09-06T02:53:18.286Z,4.63
2022-09-06T02:56:04.406Z,4.07
2022-09-06T02:58:50.207Z,4.10
2022-09-06T03:01:36.205Z,3.90
2022-09-06T03:04:22.003Z,4.43
2022-09-06T03:07:08.055Z,4.32
2022-09-06T03:09:54.023Z,4.28
2022-09-06T03:12:40.217Z,4.82
2022-09-06T03:15:26.100Z,4.85
2022-09-06T03:18:13.991Z,3.75
2022-09-06T03:21:01.071Z,4.00
2022-09-06T03:23:47.382Z,4.45
2022-09-06T03:26:33.467Z,4.00
2022-09-06T03:29:19.605Z,3.70
2022-09-06T03:32:05.760Z,3.78
2022-09-06T03:34:51.682Z,4.20
2022-09-06T03:37:37.929Z,3.67
2022-09-06T03:40:24.120Z,4.22
2022-09-06T03:43:09.945Z,4.40
2022-09-06T03:45:57.529Z,4.32
2022-09-06T03:48:43.343Z,4.53
2022-09-06T03:51:32.877Z,4.55
2022-09-06T03:54:18.512Z,4.90
2022-09-06T03:57:04.896Z,4.88
2022-09-06T03:59:51.061Z,4.38
2022-09-06T04:02:39.992Z,4.50
2022-09-06T04:05:25.670Z,5.07
2022-09-06T04:08:11.962Z,4.43
2022-09-06T04:10:58.681Z,4.43
2022-09-06T04:13:44.984Z,4.03
2022-09-06T04:16:31.249Z,4.38
2022-09-06T04:19:17.369Z,3.92
2022-09-06T04:22:03.863Z,3.90
2022-09-06T04:24:50.327Z,4.10
2022-09-06T04:27:36.488Z,4.03
2022-09-06T04:30:23.175Z,4.25
2022-09-06T04:33:09.379Z,3.63
2022-09-06T04:35:56.979Z,3.70
2022-09-06T04:38:43.965Z,4.90
2022-09-06T04:41:30.310Z,3.90
2022-09-06T04:44:16.285Z,3.80
2022-09-06T04:47:14.927Z,4.75
2022-09-06T04:50:00.739Z,3.85
2022-09-06T04:52:47.146Z,3.58
2022-09-06T04:55:34.221Z,3.22
2022-09-06T04:58:20.430Z,3.88
2022-09-06T05:01:06.252Z,2.97
2022-09-06T05:03:56.571Z,3.58
2022-09-06T05:06:43.255Z,3.30
2022-09-06T05:09:29.813Z,3.20
2022-09-06T05:12:15.602Z,2.70
2022-09-06T05:15:01.837Z,3.50
2022-09-06T05:17:48.518Z,2.72
2022-09-06T05:20:34.314Z,3.00
2022-09-06T05:23:21.751Z,3.17
2022-09-06T05:26:08.307Z,3.22
2022-09-06T05:28:53.967Z,2.50
2022-09-06T05:31:40.565Z,3.20
2022-09-06T05:34:26.145Z,3.33
2022-09-06T05:37:12.752Z,3.47
2022-09-06T05:43:09.647Z,3.15
2022-09-06T05:45:55.725Z,3.25
2022-09-06T05:48:43.021Z,3.00
2022-09-06T05:51:32.530Z,3.20
2022-09-06T05:54:19.089Z,2.92
2022-09-06T05:57:06.918Z,2.75
2022-09-06T05:59:55.866Z,2.65
2022-09-06T06:02:41.990Z,3.10
2022-09-06T06:05:28.668Z,3.50
2022-09-06T06:08:14.075Z,3.20
2022-09-06T06:11:00.785Z,2.90
2022-09-06T06:13:46.874Z,3.00
2022-09-06T06:16:37.930Z,3.35
2022-09-06T06:19:27.680Z,2.70
2022-09-06T06:22:24.573Z,2.83
2022-09-06T06:25:29.205Z,3.00
2022-09-06T06:28:18.900Z,2.88
2022-09-06T06:31:09.226Z,2.90
2022-09-06T06:37:48.282Z,2.63
2022-09-06T06:40:38.617Z,3.03
2022-09-06T06:44:03.995Z,3.00
2022-09-06T06:46:52.721Z,2.88
2022-09-06T06:49:38.642Z,2.80
2022-09-06T06:52:24.675Z,4.00
2022-09-06T06:55:10.288Z,3.70
2022-09-06T06:57:56.146Z,3.20
2022-09-06T07:00:42.832Z,3.10
2022-09-06T07:03:29.528Z,3.28
2022-09-06T07:06:15.420Z,2.88
2022-09-06T07:09:02.045Z,2.72
2022-09-06T07:11:51.584Z,2.80
2022-09-06T07:14:37.406Z,3.10
2022-09-06T07:17:23.298Z,3.35
2022-09-06T07:26:19.414Z,3.00
2022-09-06T07:29:06.527Z,3.30
2022-09-06T07:32:12.248Z,3.13
2022-09-06T07:34:58.582Z,2.90
2022-09-06T07:37:55.509Z,2.83
2022-09-06T07:40:41.178Z,2.47
2022-09-06T07:43:28.306Z,2.70
2022-09-06T07:46:16.722Z,2.70
2022-09-06T07:49:05.288Z,2.83
2022-09-06T07:51:50.844Z,3.20
2022-09-06T07:54:37.564Z,2.40
2022-09-06T07:57:23.751Z,2.60
2022-09-06T08:00:13.822Z,2.80
2022-09-06T08:11:44.265Z,2.50
2022-09-06T08:14:38.020Z,2.55
2022-09-06T08:17:27.725Z,2.45
2022-09-06T08:20:13.806Z,2.47
2022-09-06T08:23:02.035Z,2.08
2022-09-06T08:25:58.295Z,2.55
2022-09-06T08:28:45.786Z,2.30
2022-09-06T08:31:35.310Z,2.15
2022-09-06T08:34:22.438Z,2.15
2022-09-06T08:37:08.380Z,2.28
2022-09-06T08:39:56.795Z,2.10
2022-09-06T08:42:44.697Z,1.70
2022-09-06T08:45:31.306Z,2.03
2022-09-06T08:48:17.828Z,1.77
2022-09-06T08:51:23.298Z,1.98
2022-09-06T08:54:18.198Z,2.05
2022-09-06T08:57:40.464Z,1.90
2022-09-06T09:00:27.590Z,1.88
2022-09-06T09:03:25.730Z,2.17
2022-09-06T09:06:11.797Z,1.80
2022-09-06T09:09:02.793Z,1.70
2022-09-06T09:11:51.344Z,2.03
2022-09-06T09:14:39.202Z,1.95
2022-09-06T09:20:41.021Z,1.70
2022-09-06T09:23:30.549Z,1.45
2022-09-06T09:26:16.728Z,1.70
2022-09-06T09:29:15.521Z,1.70
2022-09-06T09:35:16.436Z,1.58
2022-09-06T09:38:25.750Z,1.35
2022-09-06T09:41:25.509Z,1.85
2022-09-06T09:44:18.331Z,1.88
2022-09-06T09:47:22.743Z,1.52
2022-09-06T09:50:32.972Z,1.42
2022-09-06T09:53:22.369Z,1.58
2022-09-06T09:56:09.105Z,1.42
2022-09-06T09:58:56.211Z,1.40
2022-09-06T10:01:42.032Z,1.30
2022-09-06T10:07:26.536Z,1.00
2022-09-06T10:10:27.243Z,1.08
2022-09-06T10:13:35.060Z,1.83
2022-09-06T10:16:44.293Z,1.30
2022-09-06T10:19:42.420Z,0.85
2022-09-06T10:22:58.771Z,1.00
2022-09-06T10:25:58.398Z,1.00
2022-09-06T10:28:46.076Z,1.00
2022-09-06T10:32:03.390Z,0.93
2022-09-06T10:35:05.190Z,0.80
2022-09-06T10:38:14.211Z,0.98
2022-09-06T10:41:29.579Z,0.90
2022-09-06T10:44:29.750Z,1.45
2022-09-06T10:47:17.123Z,0.73
2022-09-06T10:50:05.160Z,0.70
2022-09-06T10:52:52.127Z,0.80
2022-09-06T10:55:41.048Z,0.80
2022-09-06T10:58:29.523Z,0.75
2022-09-06T11:01:39.216Z,0.90
2022-09-06T11:10:50.298Z,0.80
2022-09-06T11:13:36.585Z,1.13
2022-09-06T11:16:26.219Z,1.00
2022-09-06T11:19:22.759Z,1.00
2022-09-06T11:22:25.162Z,0.95
2022-09-06T11:25:40.145Z,0.80
2022-09-06T11:28:46.461Z,0.90
2022-09-06T11:34:44.089Z,0.98
2022-09-06T11:37:36.496Z,1.05
2022-09-06T11:40:27.799Z,0.80
2022-09-06T11:43:47.244Z,1.02
2022-09-06T11:46:36.227Z,1.10
2022-09-06T11:49:34.135Z,0.90
2022-09-06T11:52:50.979Z,1.10
2022-09-06T11:55:43.872Z,1.08
2022-09-06T11:58:41.537Z,0.93
2022-09-06T12:01:28.011Z,1.00
2022-09-06T12:04:13.850Z,1.00
2022-09-06T12:07:10.281Z,0.80
2022-09-06T12:09:56.164Z,0.82
2022-09-06T12:12:45.989Z,1.02
2022-09-06T12:15:45.488Z,0.80
2022-09-06T12:18:47.059Z,0.80
2022-09-06T12:21:52.354Z,1.08
2022-09-06T12:24:53.746Z,1.00
2022-09-06T12:27:51.338Z,1.08
2022-09-06T12:33:38.891Z,0.65
2022-09-06T12:36:31.069Z,0.90
2022-09-06T12:39:17.659Z,0.80
2022-09-06T12:42:11.927Z,0.85
2022-09-06T12:44:58.065Z,1.30
2022-09-06T12:47:45.321Z,0.93
2022-09-06T12:50:31.943Z,0.80
2022-09-06T12:53:25.038Z,1.10
2022-09-06T12:56:14.522Z,1.27
2022-09-06T12:59:14.141Z,0.75
2022-09-06T13:02:06.306Z,0.85
2022-09-06T13:04:54.532Z,1.23
2022-09-06T13:07:46.982Z,1.13
2022-09-06T13:10:34.804Z,0.93
2022-09-06T13:13:23.742Z,1.08
2022-09-06T13:16:10.256Z,1.30
2022-09-06T13:19:11.808Z,1.10
2022-09-06T13:21:58.840Z,1.15
2022-09-06T13:24:47.631Z,1.23
2022-09-06T13:27:36.774Z,0.93
2022-09-06T13:30:50.029Z,1.48
2022-09-06T13:33:37.839Z,1.10
2022-09-06T13:36:27.442Z,1.20
2022-09-06T13:39:33.158Z,1.48
2022-09-06T13:42:28.307Z,1.55
2022-09-06T13:45:29.134Z,0.93
2022-09-06T13:48:28.797Z,1.05
2022-09-06T13:51:21.351Z,0.90
2022-09-06T13:54:11.732Z,1.05
2022-09-06T13:56:57.920Z,0.90
2022-09-06T13:59:43.439Z,1.48
2022-09-06T14:02:29.361Z,1.30
2022-09-06T14:05:16.098Z,1.40
2022-09-06T14:08:02.746Z,1.02
2022-09-06T14:10:48.536Z,1.10
2022-09-06T14:13:34.949Z,1.20
2022-09-06T14:16:21.415Z,1.60
2022-09-06T14:19:07.726Z,1.70
2022-09-06T14:21:53.521Z,1.50
2022-09-06T14:24:39.589Z,1.27
2022-09-06T14:27:25.523Z,1.10
2022-09-06T14:30:12.609Z,1.30
2022-09-06T14:32:58.755Z,1.77
2022-09-06T14:35:44.858Z,1.23
2022-09-06T14:38:30.804Z,1.30
2022-09-06T14:41:18.943Z,1.40
2022-09-06T14:44:04.794Z,1.20
2022-09-06T14:46:53.644Z,1.40
2022-09-06T14:49:39.528Z,1.60
2022-09-06T14:52:25.898Z,1.27
2022-09-06T14:55:11.637Z,1.08
2022-09-06T14:57:59.524Z,1.40
2022-09-06T15:00:46.617Z,1.17
2022-09-06T15:03:35.771Z,1.35
2022-09-06T15:06:22.458Z,1.35
2022-09-06T15:09:08.557Z,1.48
2022-09-06T15:11:54.736Z,1.20
2022-09-06T15:14:41.487Z,1.60
2022-09-06T15:17:26.944Z,1.48
2022-09-06T15:20:19.712Z,1.27
2022-09-06T15:23:56.190Z,1.10
2022-09-06T15:26:45.167Z,1.25
2022-09-06T15:29:30.925Z,1.55
2022-09-06T15:32:18.950Z,0.90
2022-09-06T15:35:07.266Z,1.30
2022-09-06T15:37:55.505Z,1.50
2022-09-06T15:40:50.176Z,1.13
2022-09-06T15:44:28.821Z,1.88
2022-09-06T15:51:36.847Z,1.30
2022-09-06T15:54:43.769Z,1.02
2022-09-06T15:57:30.484Z,1.48
2022-09-06T16:00:17.877Z,2.63
2022-09-06T16:03:09.344Z,1.52
2022-09-06T16:06:25.810Z,1.90
2022-09-06T16:09:14.682Z,1.50
2022-09-06T16:12:04.869Z,1.90
2022-09-06T16:14:51.347Z,1.70
2022-09-06T16:17:37.474Z,1.52
2022-09-06T16:20:23.405Z,2.42
2022-09-06T16:23:08.809Z,4.20
2022-09-06T16:25:58.473Z,2.80
2022-09-06T16:28:44.551Z,3.13
2022-09-06T16:31:30.916Z,1.60
2022-09-06T16:34:17.316Z,1.80
2022-09-06T16:37:08.264Z,2.10
2022-09-06T16:39:53.903Z,1.60
2022-09-06T16:42:40.643Z,1.70
2022-09-06T16:45:25.983Z,1.65
2022-09-06T16:48:12.323Z,1.55
2022-09-06T16:50:58.459Z,2.08
2022-09-06T16:53:46.386Z,2.95
2022-09-06T16:56:34.770Z,1.83
2022-09-06T16:59:21.724Z,2.10
2022-09-06T17:02:07.209Z,1.70
2022-09-06T17:04:54.132Z,2.00
2022-09-06T17:07:40.521Z,1.90
2022-09-06T17:10:26.739Z,2.22
2022-09-06T17:13:13.240Z,2.20
2022-09-06T17:16:22.120Z,2.33
2022-09-06T17:19:09.209Z,2.50
2022-09-06T17:21:55.029Z,2.30
2022-09-06T17:24:41.498Z,2.35
2022-09-06T17:27:27.656Z,2.10
2022-09-06T17:30:13.619Z,2.25
2022-09-06T17:32:59.689Z,2.30
2022-09-06T17:35:46.135Z,2.00
2022-09-06T17:38:32.284Z,2.35
2022-09-06T17:41:38.604Z,1.88
2022-09-06T17:44:26.115Z,1.60
2022-09-06T17:47:13.744Z,2.75
2022-09-06T17:50:00.950Z,2.00
2022-09-06T17:52:46.616Z,1.92
2022-09-06T17:55:32.546Z,1.70
2022-09-06T17:58:19.931Z,1.52
2022-09-06T18:01:09.378Z,1.60
2022-09-06T18:03:55.841Z,2.50
2022-09-06T18:06:43.178Z,2.40
2022-09-06T18:09:28.851Z,2.53
2022-09-06T18:12:15.578Z,2.50
2022-09-06T18:15:02.324Z,4.22
2022-09-06T18:17:48.972Z,4.32
2022-09-06T18:20:34.846Z,3.60
2022-09-06T18:23:21.287Z,2.55
2022-09-06T18:26:08.008Z,2.10
2022-09-06T18:28:54.914Z,2.80
2022-09-06T18:31:41.249Z,2.47
2022-09-06T18:34:27.357Z,2.72
2022-09-06T18:37:12.814Z,1.98
2022-09-06T18:39:59.129Z,2.60
2022-09-06T18:42:44.881Z,2.85
2022-09-06T18:45:34.472Z,2.42
2022-09-06T18:48:20.281Z,2.30
2022-09-06T18:51:11.850Z,3.08
2022-09-06T18:53:58.328Z,5.90
2022-09-06T18:56:49.016Z,4.43
2022-09-06T18:59:34.793Z,4.22
2022-09-06T19:02:23.511Z,3.45
2022-09-06T19:05:09.662Z,5.05
2022-09-06T19:07:55.788Z,4.43
2022-09-06T19:10:41.479Z,3.83
2022-09-06T19:13:29.964Z,3.85
2022-09-06T19:16:15.514Z,4.60
2022-09-06T19:19:07.190Z,2.78
2022-09-06T19:21:54.611Z,2.72
2022-09-06T19:24:40.767Z,2.90
2022-09-06T19:27:26.903Z,2.63
2022-09-06T19:30:13.265Z,4.00
2022-09-06T19:32:59.258Z,4.43
2022-09-06T19:36:07.638Z,2.85
2022-09-06T19:39:03.626Z,3.00
2022-09-06T19:41:51.397Z,3.95
2022-09-06T19:44:44.059Z,4.85
2022-09-06T19:47:29.908Z,6.03
2022-09-06T19:50:16.049Z,3.33
2022-09-06T19:53:06.618Z,3.42
2022-09-06T19:55:53.236Z,2.67
2022-09-06T19:58:40.063Z,2.75
2022-09-06T20:01:29.236Z,2.70
2022-09-06T20:04:15.856Z,2.05
2022-09-06T20:07:02.762Z,2.70
2022-09-06T20:09:52.429Z,2.47
2022-09-06T20:12:39.736Z,2.50
2022-09-06T20:15:26.851Z,2.47
2022-09-06T20:18:12.584Z,2.38
2022-09-06T20:21:01.125Z,2.30
2022-09-06T20:23:51.787Z,2.67
2022-09-06T20:26:37.910Z,2.95
2022-09-06T20:29:23.803Z,3.40
2022-09-06T20:32:09.750Z,2.83
2022-09-06T20:34:55.232Z,3.10
2022-09-06T20:37:41.283Z,2.83
2022-09-06T20:40:27.617Z,2.72
2022-09-06T20:43:14.299Z,2.95
2022-09-06T20:46:03.664Z,2.58
2022-09-06T20:48:50.873Z,2.65
2022-09-06T20:51:37.164Z,2.35
2022-09-06T20:54:23.274Z,2.50
2022-09-06T20:57:14.739Z,2.20
2022-09-06T21:00:02.609Z,2.35
2022-09-06T21:02:51.883Z,2.28
2022-09-06T21:05:42.563Z,2.20
2022-09-06T21:08:32.865Z,2.38
2022-09-06T21:11:21.567Z,2.20
2022-09-06T21:14:08.161Z,2.20
2022-09-06T21:16:55.123Z,2.15
2022-09-06T21:19:42.905Z,2.70
2022-09-06T21:22:31.159Z,2.20
2022-09-06T21:25:16.742Z,2.38
2022-09-06T21:28:02.713Z,2.15
2022-09-06T21:30:49.629Z,2.20
2022-09-06T21:33:36.887Z,2.50
2022-09-06T21:36:29.943Z,2.40
2022-09-06T21:39:16.122Z,2.25
2022-09-06T21:42:01.646Z,2.42
2022-09-06T21:44:48.021Z,2.15
2022-09-06T21:47:34.332Z,2.10
2022-09-06T21:50:20.812Z,2.20
2022-09-06T21:53:06.663Z,2.28
2022-09-06T21:55:52.403Z,2.58
2022-09-06T21:58:38.052Z,2.40
2022-09-06T22:01:25.958Z,1.98
2022-09-06T22:04:12.946Z,2.20
2022-09-06T22:06:59.047Z,2.75
2022-09-06T22:09:45.088Z,2.45
2022-09-06T22:12:31.051Z,2.40
2022-09-06T22:15:17.222Z,2.47
2022-09-06T22:18:03.505Z,2.15
2022-09-06T22:20:49.267Z,2.22
2022-09-06T22:23:35.716Z,2.22
2022-09-06T22:26:22.052Z,2.95
2022-09-06T22:29:09.676Z,2.08
2022-09-06T22:31:55.783Z,2.72
2022-09-06T22:34:42.608Z,2.85
2022-09-06T22:37:28.529Z,2.38
2022-09-06T22:40:14.604Z,2.72
2022-09-06T22:43:00.578Z,2.58
2022-09-06T22:45:51.335Z,2.20
2022-09-06T22:51:24.440Z,2.85
2022-09-06T22:54:09.987Z,2.85
2022-09-06T22:56:55.797Z,3.00
2022-09-06T22:59:41.400Z,3.17
2022-09-06T23:02:27.556Z,2.92
2022-09-06T23:05:12.979Z,2.97
2022-09-06T23:08:01.642Z,2.47
2022-09-06T23:10:47.545Z,2.70
2022-09-06T23:13:34.317Z,3.10
2022-09-06T23:16:19.848Z,3.13
2022-09-06T23:19:06.326Z,3.22
2022-09-06T23:21:52.273Z,3.33
2022-09-06T23:24:39.609Z,2.97
2022-09-06T23:27:25.510Z,3.40
2022-09-06T23:30:11.633Z,3.17
2022-09-06T23:32:57.631Z,2.40
2022-09-06T23:35:43.839Z,3.03
2022-09-06T23:38:29.293Z,3.55
2022-09-06T23:41:15.612Z,3.33
2022-09-06T23:44:01.843Z,3.60
2022-09-06T23:46:48.199Z,3.47
2022-09-06T23:49:34.383Z,2.90
2022-09-06T23:52:20.378Z,2.88
2022-09-06T23:55:06.374Z,2.63
2022-09-06T23:57:52.581Z,2.85
